サイパン島 の空港の天気 - METARとTAF

サイパン国際空港 ( PGSN / SPN ) - 北マリアナ諸島 サイパン島
飛行場実況気象(Metar)
観測時間08/18 11:54 ChST (08/18 01:54 UTC)
風向・風速南南東 3m/s
視程10km以上
天気現象
少しの雲 雲底高度 640m
全天の4割程度の雲 雲底高度 1310m
気温32.2℃
湿度68%
気圧1012hPa
METARPGSN 180154Z 15006KT 10SM FEW021 SCT043 32/26 A2983 RMK AO2 SLP120 T03220256 $
過去の天気等 Google飛行場航空写真 Wunderground天気予報

過去48時間のMETAR

飛行場予報(TAF)
発表時間: 8/18 09:28 ChST (8/17 23:28 UTC)
予報対象時間: 18日10時 ChST ~ 19日10時 ChST
風向・風速南南東 3m/s
視程10km以上
天気現象周辺でしゅう雨
全天の4割程度の雲 雲底高度 550m
全天の4割程度の雲 雲底高度 1,220m
全天の8割程度の雲 雲底高度 4,570m
TAF PGSN 172328Z 1800/1824 16005KT P6SM VCSH SCT018 SCT040 BKN150